createdAt,value
2023-02-24T00:00:37.218Z,4.90
2023-02-24T00:03:44.289Z,4.80
2023-02-24T00:06:48.792Z,4.80
2023-02-24T00:09:54.664Z,4.80
2023-02-24T00:13:00.824Z,4.70
2023-02-24T00:16:07.838Z,4.70
2023-02-24T00:19:13.617Z,4.70
2023-02-24T00:22:19.752Z,4.60
2023-02-24T00:25:23.752Z,4.60
2023-02-24T00:28:32.426Z,4.50
2023-02-24T00:31:39.082Z,4.50
2023-02-24T00:34:45.811Z,4.50
2023-02-24T00:37:53.765Z,4.50
2023-02-24T00:41:01.864Z,4.40
2023-02-24T00:44:09.799Z,4.30
2023-02-24T00:47:17.814Z,4.40
2023-02-24T00:50:24.216Z,4.40
2023-02-24T00:53:30.510Z,4.30
2023-02-24T00:56:34.552Z,4.30
2023-02-24T00:59:46.823Z,4.30
2023-02-24T01:02:50.773Z,4.30
2023-02-24T01:05:56.921Z,4.30
2023-02-24T01:09:01.615Z,4.20
2023-02-24T01:12:38.252Z,4.20
2023-02-24T01:15:44.522Z,4.20
2023-02-24T01:18:51.277Z,4.20
2023-02-24T01:21:55.345Z,4.20
2023-02-24T01:25:01.247Z,4.20
2023-02-24T01:28:05.426Z,4.20
2023-02-24T01:31:17.790Z,4.20
2023-02-24T01:34:23.909Z,4.20
2023-02-24T01:37:30.326Z,4.20
2023-02-24T01:40:34.628Z,4.20
2023-02-24T01:44:01.350Z,4.20
2023-02-24T01:47:07.568Z,4.20
2023-02-24T01:50:15.380Z,4.10
2023-02-24T01:53:20.473Z,4.10
2023-02-24T01:56:28.936Z,4.20
2023-02-24T01:59:36.706Z,4.10
2023-02-24T02:02:50.116Z,4.10
2023-02-24T02:05:58.346Z,4.10
2023-02-24T02:09:07.409Z,4.10
2023-02-24T02:12:12.443Z,4.10
2023-02-24T02:15:20.322Z,4.00
2023-02-24T02:18:37.890Z,4.00
2023-02-24T02:22:04.825Z,4.00
2023-02-24T02:25:19.895Z,4.00
2023-02-24T02:28:54.107Z,3.90
2023-02-24T02:32:18.352Z,4.00
2023-02-24T02:35:36.242Z,3.90
2023-02-24T02:38:49.015Z,3.90
2023-02-24T02:42:04.161Z,3.90
2023-02-24T02:45:13.909Z,3.80
2023-02-24T02:48:26.443Z,3.80
2023-02-24T02:51:40.261Z,3.80
2023-02-24T02:54:51.964Z,3.80
2023-02-24T02:57:58.217Z,3.80
2023-02-24T03:01:06.688Z,3.80
2023-02-24T03:04:16.412Z,3.80
2023-02-24T03:07:31.881Z,3.70
2023-02-24T03:10:36.368Z,3.70
2023-02-24T03:13:48.944Z,3.70
2023-02-24T03:16:55.205Z,3.70
2023-02-24T03:20:14.416Z,3.70
2023-02-24T03:23:25.737Z,3.70
2023-02-24T03:26:40.809Z,3.80
2023-02-24T03:29:49.988Z,3.70
2023-02-24T03:33:04.274Z,3.70
2023-02-24T03:36:08.643Z,3.70
2023-02-24T03:39:18.316Z,3.70
2023-02-24T03:42:34.755Z,3.70
2023-02-24T03:45:42.605Z,3.70
2023-02-24T03:48:49.611Z,3.70
2023-02-24T03:52:09.035Z,3.80
2023-02-24T03:55:22.978Z,3.70
2023-02-24T03:58:41.226Z,3.70
2023-02-24T04:01:57.252Z,3.70
2023-02-24T04:05:14.398Z,3.70
2023-02-24T04:08:39.379Z,3.80
2023-02-24T04:11:53.909Z,3.70
2023-02-24T04:15:04.402Z,3.80
2023-02-24T04:18:16.272Z,3.80
2023-02-24T04:21:24.031Z,3.80
2023-02-24T04:24:33.728Z,3.80
2023-02-24T04:27:39.867Z,3.80
2023-02-24T04:30:55.804Z,3.80
2023-02-24T04:34:01.325Z,3.80
2023-02-24T04:37:15.225Z,3.80
2023-02-24T04:40:22.012Z,3.80
2023-02-24T04:43:29.886Z,3.80
2023-02-24T04:46:34.292Z,3.90
2023-02-24T04:49:40.894Z,3.90
2023-02-24T04:52:44.854Z,3.90
2023-02-24T04:55:50.750Z,3.90
2023-02-24T04:58:56.739Z,3.90
2023-02-24T05:02:03.510Z,3.90
2023-02-24T05:05:10.244Z,3.90
2023-02-24T05:08:16.234Z,3.90
2023-02-24T05:11:20.329Z,3.90
2023-02-24T05:14:28.492Z,3.80
2023-02-24T05:17:32.993Z,3.80
2023-02-24T05:20:52.944Z,3.80
2023-02-24T05:23:58.609Z,3.80
2023-02-24T05:27:04.954Z,3.80
2023-02-24T05:30:13.908Z,3.80
2023-02-24T05:33:21.880Z,3.80
2023-02-24T05:36:26.827Z,3.90
2023-02-24T05:39:34.504Z,3.80
2023-02-24T05:42:38.331Z,3.80
2023-02-24T05:45:46.452Z,3.80
2023-02-24T05:48:56.286Z,3.80
2023-02-24T05:52:06.847Z,3.80
2023-02-24T05:55:13.392Z,3.80
2023-02-24T05:58:19.284Z,3.80
2023-02-24T06:01:29.581Z,3.80
2023-02-24T06:04:46.070Z,3.80
2023-02-24T06:07:50.262Z,3.80
2023-02-24T06:10:56.144Z,3.80
2023-02-24T06:14:00.145Z,3.70
2023-02-24T06:17:08.089Z,3.80
2023-02-24T06:20:15.340Z,3.80
2023-02-24T06:23:21.770Z,3.80
2023-02-24T06:26:29.261Z,3.80
2023-02-24T06:29:35.867Z,3.80
2023-02-24T06:32:42.470Z,3.80
2023-02-24T06:35:48.727Z,3.80
2023-02-24T06:38:52.917Z,3.80
2023-02-24T06:42:03.304Z,3.80
2023-02-24T06:45:08.580Z,3.80
2023-02-24T06:48:16.439Z,3.80
2023-02-24T06:51:21.123Z,3.80
2023-02-24T06:54:29.868Z,3.80
2023-02-24T06:57:34.274Z,3.80
2023-02-24T07:00:40.200Z,3.80
2023-02-24T07:04:02.826Z,3.90
2023-02-24T07:07:08.784Z,3.90
2023-02-24T07:10:14.000Z,3.90
2023-02-24T07:13:20.507Z,3.90
2023-02-24T07:16:25.749Z,3.90
2023-02-24T07:19:34.385Z,3.90
2023-02-24T07:22:38.259Z,3.90
2023-02-24T07:25:45.660Z,3.90
2023-02-24T07:28:49.615Z,3.90
2023-02-24T07:31:56.678Z,4.00
2023-02-24T07:35:02.985Z,4.00
2023-02-24T07:38:08.892Z,4.00
2023-02-24T07:41:14.817Z,4.00
2023-02-24T07:44:22.925Z,4.00
2023-02-24T07:47:26.876Z,4.10
2023-02-24T07:50:34.984Z,4.00
2023-02-24T07:53:39.750Z,4.10
2023-02-24T07:56:55.720Z,4.10
2023-02-24T07:59:59.650Z,4.10
2023-02-24T08:03:05.904Z,4.10
2023-02-24T08:06:15.007Z,4.10
2023-02-24T08:09:42.111Z,4.10
2023-02-24T08:12:46.898Z,4.20
2023-02-24T08:15:56.007Z,4.20
2023-02-24T08:19:02.848Z,4.20
2023-02-24T08:22:23.503Z,4.20
2023-02-24T08:25:34.771Z,4.20
2023-02-24T08:28:41.118Z,4.20
2023-02-24T08:31:45.056Z,4.20
2023-02-24T08:34:56.142Z,4.20
2023-02-24T08:38:07.057Z,4.20
2023-02-24T08:41:17.034Z,4.30
2023-02-24T08:44:21.605Z,4.20
2023-02-24T08:47:30.505Z,4.30
2023-02-24T08:50:34.459Z,4.20
2023-02-24T08:53:43.004Z,4.30
2023-02-24T08:56:55.185Z,4.30
2023-02-24T09:00:06.385Z,4.30
2023-02-24T09:03:10.302Z,4.30
2023-02-24T09:06:24.700Z,4.30
2023-02-24T09:09:30.758Z,4.30
2023-02-24T09:12:40.589Z,4.30
2023-02-24T09:15:44.459Z,4.30
2023-02-24T09:19:12.219Z,4.30
2023-02-24T09:22:21.303Z,4.30
2023-02-24T09:25:44.186Z,4.40
2023-02-24T09:28:54.257Z,4.40
2023-02-24T09:32:04.064Z,4.50
2023-02-24T09:35:08.766Z,4.50
2023-02-24T09:38:17.516Z,4.50
2023-02-24T09:41:33.132Z,4.50
2023-02-24T09:44:43.696Z,4.50
2023-02-24T09:47:58.122Z,4.60
2023-02-24T09:51:05.646Z,4.60
2023-02-24T09:54:16.951Z,4.60
2023-02-24T09:57:36.808Z,4.60
2023-02-24T10:00:45.600Z,4.70
2023-02-24T10:04:18.690Z,4.70
2023-02-24T10:07:37.684Z,4.70
2023-02-24T10:11:04.340Z,4.70
2023-02-24T10:14:18.856Z,4.80
2023-02-24T10:17:39.479Z,4.80
2023-02-24T10:20:48.846Z,4.80
2023-02-24T10:24:05.999Z,4.90
2023-02-24T10:27:17.650Z,4.90
2023-02-24T10:30:42.243Z,4.90
2023-02-24T10:33:48.429Z,5.00
2023-02-24T10:36:56.920Z,5.00
2023-02-24T10:40:08.898Z,5.10
2023-02-24T10:43:19.816Z,5.10
2023-02-24T10:46:41.032Z,5.20
2023-02-24T10:49:58.277Z,5.20
2023-02-24T10:53:25.946Z,5.20
2023-02-24T10:56:43.856Z,5.30
2023-02-24T11:00:06.246Z,5.30
2023-02-24T11:03:32.676Z,5.30
2023-02-24T11:06:55.154Z,5.40
2023-02-24T11:10:13.102Z,5.40
2023-02-24T11:13:31.697Z,5.40
2023-02-24T11:17:05.269Z,5.50
2023-02-24T11:20:24.834Z,5.50
2023-02-24T11:23:36.374Z,5.50
2023-02-24T11:26:43.060Z,5.60
2023-02-24T11:30:14.368Z,5.60
2023-02-24T11:33:30.424Z,5.60
2023-02-24T11:36:48.699Z,5.70
2023-02-24T11:39:57.655Z,5.70
2023-02-24T11:43:11.576Z,5.70
2023-02-24T11:46:19.195Z,5.70
2023-02-24T11:49:32.359Z,5.80
2023-02-24T11:52:42.558Z,5.80
2023-02-24T11:55:52.753Z,5.90
2023-02-24T11:59:03.344Z,5.90
2023-02-24T12:02:18.331Z,5.90
2023-02-24T12:05:26.199Z,6.00
2023-02-24T12:08:38.042Z,6.00
2023-02-24T12:11:48.814Z,6.10
2023-02-24T12:14:58.572Z,6.10
2023-02-24T12:18:09.420Z,6.20
2023-02-24T12:21:23.152Z,6.20
2023-02-24T12:24:29.636Z,6.30
2023-02-24T12:27:50.539Z,6.40
2023-02-24T12:31:08.154Z,6.50
2023-02-24T12:34:22.983Z,6.60
2023-02-24T12:37:52.658Z,6.70
2023-02-24T12:41:17.114Z,6.80
2023-02-24T12:44:29.744Z,6.90
2023-02-24T12:47:45.123Z,7.00
2023-02-24T12:50:54.953Z,7.10
2023-02-24T12:54:06.535Z,7.20
2023-02-24T12:57:20.619Z,7.30
2023-02-24T13:00:40.217Z,7.40
2023-02-24T13:04:09.535Z,7.50
2023-02-24T13:07:31.957Z,7.50
2023-02-24T13:10:45.120Z,7.60
2023-02-24T13:14:01.651Z,7.70
2023-02-24T13:17:08.658Z,7.70
2023-02-24T13:20:27.963Z,7.80
2023-02-24T13:23:32.449Z,7.90
2023-02-24T13:26:38.355Z,7.90
2023-02-24T13:29:48.166Z,7.90
2023-02-24T13:33:03.273Z,8.00
2023-02-24T13:36:21.048Z,8.00
2023-02-24T13:39:34.081Z,8.10
2023-02-24T13:42:38.275Z,8.00
2023-02-24T13:45:57.541Z,8.00
2023-02-24T13:49:25.704Z,8.00
2023-02-24T13:52:44.861Z,8.00
2023-02-24T13:56:01.850Z,7.90
2023-02-24T13:59:21.836Z,7.90
2023-02-24T14:02:30.363Z,7.90
2023-02-24T14:05:38.082Z,7.90
2023-02-24T14:08:47.316Z,7.90
2023-02-24T14:11:58.934Z,7.80
2023-02-24T14:15:04.309Z,7.90
2023-02-24T14:18:21.834Z,7.90
2023-02-24T14:21:27.539Z,7.80
2023-02-24T14:24:33.454Z,7.90
2023-02-24T14:27:38.771Z,7.90
2023-02-24T14:30:44.837Z,7.90
2023-02-24T14:33:58.448Z,7.90
2023-02-24T14:37:05.498Z,7.90
2023-02-24T14:40:21.238Z,7.90
2023-02-24T14:43:27.604Z,7.90
2023-02-24T14:46:31.974Z,7.90
2023-02-24T14:49:40.235Z,7.90
2023-02-24T14:52:47.647Z,8.00
2023-02-24T14:55:57.464Z,8.00
2023-02-24T14:59:07.576Z,8.00
2023-02-24T15:02:19.546Z,8.00
2023-02-24T15:05:25.849Z,8.00
2023-02-24T15:08:37.606Z,8.00
2023-02-24T15:11:41.687Z,8.00
2023-02-24T15:14:51.758Z,8.10
2023-02-24T15:17:58.545Z,8.10
2023-02-24T15:21:08.461Z,8.10
2023-02-24T15:24:21.188Z,8.10
2023-02-24T15:27:32.304Z,8.10
2023-02-24T15:30:39.229Z,8.00
2023-02-24T15:33:47.568Z,8.00
2023-02-24T15:36:55.868Z,8.00
2023-02-24T15:40:08.694Z,8.00
2023-02-24T15:43:13.282Z,8.00
2023-02-24T15:46:26.499Z,8.00
2023-02-24T15:49:30.619Z,8.00
2023-02-24T15:52:39.737Z,8.00
2023-02-24T15:55:44.518Z,7.90
2023-02-24T15:58:50.460Z,7.90
2023-02-24T16:01:54.138Z,7.90
2023-02-24T16:05:00.220Z,7.90
2023-02-24T16:08:06.774Z,7.80
2023-02-24T16:11:13.191Z,7.80
2023-02-24T16:14:19.833Z,7.70
2023-02-24T16:17:33.063Z,7.60
2023-02-24T16:20:38.935Z,7.60
2023-02-24T16:23:46.878Z,7.50
2023-02-24T16:26:51.093Z,7.50
2023-02-24T16:29:57.435Z,7.40
2023-02-24T16:33:02.680Z,7.40
2023-02-24T16:36:13.522Z,7.30
2023-02-24T16:39:20.088Z,7.30
2023-02-24T16:42:25.950Z,7.30
2023-02-24T16:45:30.885Z,7.20
2023-02-24T16:48:40.002Z,7.20
2023-02-24T16:51:43.916Z,7.10
2023-02-24T16:54:51.868Z,7.10
2023-02-24T16:57:56.071Z,7.10
2023-02-24T17:01:03.930Z,7.00
2023-02-24T17:04:10.477Z,7.00
2023-02-24T17:07:18.471Z,6.90
2023-02-24T17:10:26.559Z,6.90
2023-02-24T17:13:32.702Z,6.90
2023-02-24T17:16:39.607Z,6.90
2023-02-24T17:19:45.534Z,6.80
2023-02-24T17:22:49.828Z,6.80
2023-02-24T17:26:00.535Z,6.80
2023-02-24T17:29:05.401Z,6.80
2023-02-24T17:32:11.502Z,6.80
2023-02-24T17:35:15.572Z,6.70
2023-02-24T17:38:24.068Z,6.70
2023-02-24T17:41:30.239Z,6.70
2023-02-24T17:44:36.491Z,6.70
2023-02-24T17:47:41.207Z,6.70
2023-02-24T17:50:48.049Z,6.70
2023-02-24T17:53:51.939Z,6.70
2023-02-24T17:56:59.737Z,6.70
2023-02-24T18:00:04.233Z,6.70
2023-02-24T18:03:18.422Z,6.70
2023-02-24T18:06:23.058Z,6.60
2023-02-24T18:09:29.183Z,6.60
2023-02-24T18:12:34.905Z,6.60
2023-02-24T18:15:42.054Z,6.50
2023-02-24T18:18:46.104Z,6.50
2023-02-24T18:21:52.091Z,6.50
2023-02-24T18:24:56.303Z,6.40
2023-02-24T18:28:04.430Z,6.40
2023-02-24T18:31:13.628Z,6.40
2023-02-24T18:34:19.546Z,6.40
2023-02-24T18:37:23.560Z,6.30
2023-02-24T18:40:30.618Z,6.30
2023-02-24T18:43:37.211Z,6.30
2023-02-24T18:46:43.267Z,6.20
2023-02-24T18:49:47.303Z,6.20
2023-02-24T18:52:53.243Z,6.10
2023-02-24T18:56:02.429Z,6.10
2023-02-24T18:59:10.284Z,6.10
2023-02-24T19:02:14.227Z,6.10
2023-02-24T19:05:20.656Z,6.10
2023-02-24T19:08:24.667Z,6.00
2023-02-24T19:11:31.038Z,5.90
2023-02-24T19:14:37.148Z,5.90
2023-02-24T19:17:43.030Z,5.90
2023-02-24T19:20:46.944Z,5.90
2023-02-24T19:23:52.984Z,5.90
2023-02-24T19:26:56.944Z,5.90
2023-02-24T19:30:06.185Z,5.80
2023-02-24T19:33:11.328Z,5.80
2023-02-24T19:36:17.569Z,5.80
2023-02-24T19:39:21.543Z,5.80
2023-02-24T19:42:27.885Z,5.80
2023-02-24T19:45:33.853Z,5.80
2023-02-24T19:48:40.892Z,5.70
2023-02-24T19:51:47.133Z,5.70
2023-02-24T19:54:54.312Z,5.70
2023-02-24T19:57:58.238Z,5.70
2023-02-24T20:01:12.356Z,5.60
2023-02-24T20:04:16.310Z,5.60
2023-02-24T20:07:23.790Z,5.60
2023-02-24T20:10:28.028Z,5.50
2023-02-24T20:13:34.079Z,5.50
2023-02-24T20:16:41.580Z,5.50
2023-02-24T20:19:47.813Z,5.50
2023-02-24T20:22:51.716Z,5.40
2023-02-24T20:25:58.605Z,5.40
2023-02-24T20:29:02.593Z,5.40
2023-02-24T20:32:10.811Z,5.40
2023-02-24T20:35:15.031Z,5.30
2023-02-24T20:38:21.005Z,5.30
2023-02-24T20:41:25.961Z,5.30
2023-02-24T20:44:31.916Z,5.30
2023-02-24T20:47:37.769Z,5.30
2023-02-24T20:50:43.855Z,5.30
2023-02-24T20:53:57.276Z,5.30
2023-02-24T20:57:04.181Z,5.20
2023-02-24T21:00:09.421Z,5.30
2023-02-24T21:03:18.248Z,5.30
2023-02-24T21:06:22.458Z,5.20
2023-02-24T21:09:28.696Z,5.20
2023-02-24T21:12:32.904Z,5.20
2023-02-24T21:15:39.432Z,5.20
2023-02-24T21:18:47.282Z,5.20
2023-02-24T21:21:53.218Z,5.20
2023-02-24T21:24:57.080Z,5.20
2023-02-24T21:28:02.968Z,5.20
2023-02-24T21:31:09.058Z,5.10
2023-02-24T21:34:18.975Z,5.10
2023-02-24T21:37:23.186Z,5.10
2023-02-24T21:40:29.187Z,5.10
2023-02-24T21:43:33.318Z,5.00
2023-02-24T21:46:39.307Z,5.00
2023-02-24T21:49:45.660Z,5.00
2023-02-24T21:52:51.751Z,5.00
2023-02-24T21:56:03.603Z,5.00
2023-02-24T21:59:11.199Z,5.00
2023-02-24T22:02:17.326Z,5.00
2023-02-24T22:05:27.222Z,5.00
2023-02-24T22:08:31.081Z,5.00
2023-02-24T22:11:41.110Z,5.00
2023-02-24T22:14:45.051Z,4.90
2023-02-24T22:17:52.065Z,4.90
2023-02-24T22:20:57.909Z,4.90
2023-02-24T22:24:05.027Z,5.00
2023-02-24T22:27:08.896Z,5.00
2023-02-24T22:30:15.893Z,5.00
2023-02-24T22:33:20.121Z,5.00
2023-02-24T22:36:30.581Z,5.00
2023-02-24T22:39:34.651Z,5.00
2023-02-24T22:42:40.587Z,5.00
2023-02-24T22:45:44.547Z,5.00
2023-02-24T22:48:51.437Z,5.00
2023-02-24T22:51:57.268Z,5.00
2023-02-24T22:55:03.329Z,5.00
2023-02-24T22:58:07.354Z,5.00
2023-02-24T23:01:15.428Z,5.00
2023-02-24T23:04:19.576Z,5.00
2023-02-24T23:07:27.550Z,5.00
2023-02-24T23:10:31.534Z,5.00
2023-02-24T23:13:37.708Z,5.00
2023-02-24T23:16:47.673Z,5.00
2023-02-24T23:19:54.127Z,5.00
2023-02-24T23:23:01.177Z,5.00
2023-02-24T23:26:07.364Z,5.00
2023-02-24T23:29:12.850Z,5.00
2023-02-24T23:32:19.162Z,4.90
2023-02-24T23:35:23.136Z,5.00
2023-02-24T23:38:31.338Z,4.90
2023-02-24T23:41:35.553Z,4.90
2023-02-24T23:44:41.743Z,4.90
2023-02-24T23:47:45.711Z,5.00
2023-02-24T23:50:56.354Z,4.90
2023-02-24T23:54:03.131Z,4.90
2023-02-24T23:57:09.037Z,4.90
